createdAt,value
2018-12-10T00:00:22.913Z,0.40
2018-12-10T00:03:01.884Z,0.40
2018-12-10T00:05:35.259Z,0.40
2018-12-10T00:08:09.371Z,0.50
2018-12-10T00:10:41.684Z,0.50
2018-12-10T00:13:10.795Z,0.50
2018-12-10T00:15:41.631Z,0.50
2018-12-10T00:18:11.289Z,0.47
2018-12-10T00:20:42.478Z,0.40
2018-12-10T00:23:16.328Z,0.50
2018-12-10T00:25:46.760Z,0.53
2018-12-10T00:28:20.376Z,0.50
2018-12-10T00:30:51.726Z,0.40
2018-12-10T00:33:25.796Z,0.60
2018-12-10T00:35:57.069Z,0.60
2018-12-10T00:38:27.937Z,0.60
2018-12-10T00:41:01.425Z,0.50
2018-12-10T00:43:35.280Z,0.50
2018-12-10T00:46:06.629Z,0.60
2018-12-10T00:48:37.627Z,0.50
2018-12-10T00:51:08.596Z,0.50
2018-12-10T00:53:42.458Z,0.50
2018-12-10T00:56:13.639Z,0.53
2018-12-10T00:58:44.464Z,0.60
2018-12-10T01:01:18.116Z,0.60
2018-12-10T01:03:52.100Z,0.50
2018-12-10T01:06:23.420Z,0.60
2018-12-10T01:08:54.282Z,0.60
2018-12-10T01:11:25.260Z,0.60
2018-12-10T01:13:58.787Z,0.53
2018-12-10T01:16:32.607Z,0.70
2018-12-10T01:19:06.709Z,0.60
2018-12-10T01:21:37.501Z,0.60
2018-12-10T01:24:08.416Z,0.70
2018-12-10T01:26:39.471Z,0.60
2018-12-10T01:29:07.141Z,0.70
2018-12-10T01:31:38.105Z,0.67
2018-12-10T01:34:09.149Z,0.70
2018-12-10T01:36:40.187Z,0.60
2018-12-10T01:39:10.947Z,0.70
2018-12-10T01:41:45.025Z,0.70
2018-12-10T01:44:15.460Z,0.70
2018-12-10T01:46:46.557Z,0.63
2018-12-10T01:49:17.497Z,0.70
2018-12-10T01:51:48.696Z,0.70
2018-12-10T01:54:22.321Z,0.60
2018-12-10T01:56:56.345Z,0.77
2018-12-10T01:59:27.440Z,0.70
2018-12-10T02:01:58.628Z,0.80
2018-12-10T02:04:32.370Z,0.70
2018-12-10T02:07:06.347Z,0.60
2018-12-10T02:09:40.526Z,0.70
2018-12-10T02:12:14.232Z,0.70
2018-12-10T02:14:45.541Z,0.63
2018-12-10T02:17:19.361Z,0.60
2018-12-10T02:19:53.504Z,0.70
2018-12-10T02:22:24.711Z,0.60
2018-12-10T02:24:55.902Z,0.80
2018-12-10T02:27:29.663Z,0.60
2018-12-10T02:30:03.896Z,0.73
2018-12-10T02:32:34.480Z,0.60
2018-12-10T02:35:08.157Z,0.60
2018-12-10T02:37:39.407Z,0.70
2018-12-10T02:40:08.460Z,0.80
2018-12-10T02:42:42.151Z,0.60
2018-12-10T02:45:13.667Z,0.70
2018-12-10T02:47:47.718Z,0.60
2018-12-10T02:50:18.605Z,0.70
2018-12-10T02:52:47.564Z,0.57
2018-12-10T02:55:18.691Z,0.50
2018-12-10T02:57:49.637Z,0.63
2018-12-10T03:00:20.906Z,0.50
2018-12-10T03:02:52.131Z,0.70
2018-12-10T03:05:25.746Z,0.70
2018-12-10T03:08:03.000Z,0.67
2018-12-10T03:10:36.901Z,0.60
2018-12-10T03:13:07.346Z,0.60
2018-12-10T03:15:40.848Z,0.70
2018-12-10T03:18:11.403Z,0.70
2018-12-10T03:20:42.261Z,0.77
2018-12-10T03:23:13.192Z,0.70
2018-12-10T03:25:44.096Z,0.70
2018-12-10T03:28:15.155Z,0.70
2018-12-10T03:30:46.281Z,0.70
2018-12-10T03:33:17.222Z,0.70
2018-12-10T03:35:48.060Z,0.90
2018-12-10T03:38:19.008Z,0.70
2018-12-10T03:40:49.848Z,0.80
2018-12-10T03:43:21.011Z,1.10
2018-12-10T03:45:51.993Z,0.80
2018-12-10T03:48:23.149Z,0.80
2018-12-10T03:50:54.397Z,0.60
2018-12-10T03:53:25.582Z,0.77
2018-12-10T03:55:56.265Z,0.80
2018-12-10T03:58:30.072Z,0.67
2018-12-10T04:01:03.366Z,0.90
2018-12-10T04:03:34.817Z,0.90
2018-12-10T04:06:05.985Z,0.80
2018-12-10T04:08:36.691Z,0.60
2018-12-10T04:11:07.862Z,0.60
2018-12-10T04:13:38.768Z,0.70
2018-12-10T04:16:09.848Z,0.73
2018-12-10T04:18:43.623Z,0.70
2018-12-10T04:21:14.714Z,0.70
2018-12-10T04:23:45.403Z,0.83
2018-12-10T04:26:19.263Z,0.80
2018-12-10T04:28:50.271Z,0.80
2018-12-10T04:31:24.156Z,0.90
2018-12-10T04:33:55.415Z,0.73
2018-12-10T04:36:28.677Z,0.80
2018-12-10T04:39:05.119Z,0.87
2018-12-10T04:41:38.299Z,1.00
2018-12-10T04:44:14.295Z,0.80
2018-12-10T04:46:48.300Z,0.70
2018-12-10T04:49:18.949Z,0.60
2018-12-10T04:51:50.210Z,0.70
2018-12-10T04:54:21.276Z,0.50
2018-12-10T04:56:51.805Z,0.50
2018-12-10T04:59:22.227Z,0.70
2018-12-10T05:01:56.152Z,0.70
2018-12-10T05:04:30.094Z,0.80
2018-12-10T05:07:00.808Z,0.77
2018-12-10T05:09:34.769Z,0.73
2018-12-10T05:12:08.327Z,0.60
2018-12-10T05:14:41.532Z,0.60
2018-12-10T05:17:12.728Z,0.60
2018-12-10T05:29:39.677Z,0.50
2018-12-10T05:32:13.468Z,0.60
2018-12-10T05:34:43.957Z,0.50
2018-12-10T05:37:14.658Z,0.50
2018-12-10T05:39:43.843Z,0.50
2018-12-10T05:42:14.963Z,0.50
2018-12-10T05:44:46.094Z,0.60
2018-12-10T05:47:16.947Z,0.60
2018-12-10T05:49:48.198Z,0.87
2018-12-10T05:52:19.292Z,0.70
2018-12-10T05:54:50.374Z,0.60
2018-12-10T05:57:21.634Z,0.60
2018-12-10T05:59:52.607Z,0.70
2018-12-10T06:02:23.664Z,0.50
2018-12-10T06:04:54.761Z,0.50
2018-12-10T06:07:25.909Z,0.80
2018-12-10T06:09:56.791Z,0.50
2018-12-10T06:12:27.805Z,0.57
2018-12-10T06:14:58.621Z,0.60
2018-12-10T06:17:29.839Z,0.60
2018-12-10T06:20:01.020Z,0.63
2018-12-10T06:22:32.268Z,0.60
2018-12-10T06:25:03.755Z,0.70
2018-12-10T06:27:35.224Z,0.70
2018-12-10T06:30:05.935Z,0.80
2018-12-10T06:32:36.792Z,1.03
2018-12-10T06:35:08.005Z,0.70
2018-12-10T06:37:38.903Z,0.70
2018-12-10T06:50:18.355Z,0.63
2018-12-10T06:52:49.428Z,0.60
2018-12-10T06:55:20.451Z,0.80
2018-12-10T06:57:54.193Z,0.70
2018-12-10T07:00:25.357Z,0.87
2018-12-10T07:02:56.960Z,0.60
2018-12-10T07:05:28.235Z,0.60
2018-12-10T07:07:59.205Z,0.60
2018-12-10T07:10:33.112Z,0.73
2018-12-10T07:13:04.367Z,0.70
2018-12-10T07:15:35.532Z,0.70
2018-12-10T07:18:06.356Z,0.60
2018-12-10T07:20:37.397Z,0.70
2018-12-10T07:23:08.448Z,0.80
2018-12-10T07:25:39.471Z,0.80
2018-12-10T07:28:10.425Z,0.70
2018-12-10T07:30:44.152Z,0.60
2018-12-10T07:33:15.431Z,0.60
2018-12-10T07:35:46.576Z,0.80
2018-12-10T07:38:20.444Z,1.07
2018-12-10T07:40:51.824Z,0.60
2018-12-10T07:43:22.666Z,0.60
2018-12-10T07:45:53.897Z,0.70
2018-12-10T07:48:25.041Z,0.60
2018-12-10T07:50:56.322Z,0.70
2018-12-10T07:53:27.211Z,0.60
2018-12-10T07:55:58.229Z,0.70
2018-12-10T07:58:29.305Z,0.80
2018-12-10T08:01:00.093Z,0.70
2018-12-10T08:03:31.053Z,0.67
2018-12-10T08:06:02.061Z,0.70
2018-12-10T08:08:35.761Z,0.80
2018-12-10T08:11:07.020Z,0.90
2018-12-10T08:13:38.074Z,1.03
2018-12-10T08:16:09.253Z,0.90
2018-12-10T08:18:40.376Z,0.80
2018-12-10T08:21:11.351Z,0.80
2018-12-10T08:23:42.208Z,0.97
2018-12-10T08:26:13.299Z,0.90
2018-12-10T08:28:44.560Z,0.70
2018-12-10T08:31:18.310Z,0.90
2018-12-10T08:33:49.406Z,0.90
2018-12-10T08:36:20.569Z,1.00
2018-12-10T08:38:51.324Z,0.97
2018-12-10T08:41:22.221Z,0.83
2018-12-10T08:43:53.353Z,0.87
2018-12-10T08:46:24.857Z,0.83
2018-12-10T08:48:55.473Z,0.80
2018-12-10T08:51:26.513Z,0.83
2018-12-10T08:53:57.504Z,0.97
2018-12-10T08:56:34.413Z,0.83
2018-12-10T08:59:08.881Z,0.90
2018-12-10T09:01:39.633Z,1.10
2018-12-10T09:04:10.794Z,0.90
2018-12-10T09:06:41.834Z,1.20
2018-12-10T09:09:12.789Z,0.77
2018-12-10T09:11:43.643Z,0.80
2018-12-10T09:14:14.555Z,0.93
2018-12-10T09:16:42.061Z,0.90
2018-12-10T09:19:13.030Z,0.87
2018-12-10T09:21:47.035Z,0.83
2018-12-10T09:24:18.037Z,1.10
2018-12-10T09:26:49.659Z,0.80
2018-12-10T09:29:20.591Z,0.90
2018-12-10T09:31:54.158Z,0.97
2018-12-10T09:34:25.128Z,1.00
2018-12-10T09:36:56.117Z,1.13
2018-12-10T09:39:30.269Z,0.90
2018-12-10T09:42:03.652Z,0.90
2018-12-10T09:44:34.815Z,0.90
2018-12-10T09:47:05.797Z,0.97
2018-12-10T09:49:36.839Z,1.00
2018-12-10T09:52:10.746Z,0.90
2018-12-10T09:54:41.761Z,1.10
2018-12-10T09:57:15.633Z,1.07
2018-12-10T09:59:47.169Z,1.17
2018-12-10T10:02:20.629Z,1.10
2018-12-10T10:04:51.528Z,0.90
2018-12-10T10:07:28.373Z,0.97
2018-12-10T10:09:55.841Z,1.00
2018-12-10T10:12:26.681Z,0.87
2018-12-10T10:14:57.733Z,1.00
2018-12-10T10:17:28.966Z,1.23
2018-12-10T10:19:59.924Z,0.93
2018-12-10T10:22:31.232Z,1.00
2018-12-10T10:25:02.430Z,0.80
2018-12-10T10:27:33.390Z,0.80
2018-12-10T10:30:04.888Z,0.93
2018-12-10T10:32:36.259Z,1.10
2018-12-10T10:35:07.349Z,0.70
2018-12-10T10:37:38.567Z,1.00
2018-12-10T10:40:09.524Z,1.20
2018-12-10T10:42:40.798Z,1.03
2018-12-10T10:45:11.980Z,0.83
2018-12-10T10:47:42.844Z,1.00
2018-12-10T10:50:13.916Z,0.80
2018-12-10T10:52:47.667Z,1.10
2018-12-10T10:55:18.953Z,0.87
2018-12-10T10:57:49.768Z,1.07
2018-12-10T11:00:29.330Z,1.10
2018-12-10T11:03:06.735Z,0.90
2018-12-10T11:05:38.054Z,1.20
2018-12-10T11:08:09.099Z,1.00
2018-12-10T11:10:40.057Z,1.00
2018-12-10T11:13:11.088Z,0.87
2018-12-10T11:15:42.115Z,1.00
2018-12-10T11:18:13.024Z,1.10
2018-12-10T11:20:44.077Z,0.80
2018-12-10T11:23:15.083Z,0.83
2018-12-10T11:25:46.252Z,0.80
2018-12-10T11:28:17.268Z,1.00
2018-12-10T11:30:48.350Z,0.80
2018-12-10T11:33:19.367Z,0.93
2018-12-10T11:35:50.320Z,0.90
2018-12-10T11:38:21.564Z,0.60
2018-12-10T11:40:53.457Z,0.90
2018-12-10T11:43:24.403Z,0.90
2018-12-10T11:45:55.551Z,0.90
2018-12-10T11:48:26.576Z,1.00
2018-12-10T11:50:57.868Z,1.00
2018-12-10T11:53:29.169Z,1.10
2018-12-10T11:56:00.128Z,1.17
2018-12-10T12:06:09.562Z,1.10
2018-12-10T12:08:40.701Z,1.00
2018-12-10T12:11:11.791Z,1.03
2018-12-10T12:13:44.495Z,1.10
2018-12-10T12:16:15.703Z,1.10
2018-12-10T12:18:49.447Z,0.60
2018-12-10T12:21:23.530Z,0.70
2018-12-10T12:23:54.980Z,0.50
2018-12-10T12:26:26.092Z,1.00
2018-12-10T12:28:57.327Z,0.70
2018-12-10T12:31:28.372Z,0.87
2018-12-10T12:33:59.460Z,1.07
2018-12-10T12:36:30.663Z,0.70
2018-12-10T12:39:05.368Z,0.83
2018-12-10T12:41:36.301Z,0.80
2018-12-10T12:44:07.653Z,0.70
2018-12-10T12:46:35.132Z,0.70
2018-12-10T12:49:05.667Z,0.93
2018-12-10T12:51:39.179Z,0.77
2018-12-10T12:54:10.454Z,0.80
2018-12-10T12:56:41.653Z,1.00
2018-12-10T12:59:12.673Z,0.80
2018-12-10T13:01:49.128Z,0.90
2018-12-10T13:04:20.069Z,0.90
2018-12-10T13:11:51.402Z,0.87
2018-12-10T13:14:22.463Z,0.80
2018-12-10T13:16:52.953Z,0.90
2018-12-10T13:19:20.427Z,1.00
2018-12-10T13:21:53.867Z,0.87
2018-12-10T13:24:25.204Z,0.80
2018-12-10T13:26:54.256Z,0.83
2018-12-10T13:29:31.216Z,0.73
2018-12-10T13:31:59.430Z,0.90
2018-12-10T13:34:33.481Z,0.80
2018-12-10T13:37:04.636Z,0.80
2018-12-10T13:39:38.167Z,0.77
2018-12-10T13:42:09.327Z,0.77
2018-12-10T13:44:36.905Z,0.83
2018-12-10T13:47:10.088Z,0.80
2018-12-10T13:49:40.858Z,0.70
2018-12-10T13:52:11.399Z,0.60
2018-12-10T13:54:41.850Z,0.70
2018-12-10T13:57:09.333Z,0.77
2018-12-10T13:59:39.945Z,0.60
2018-12-10T14:02:14.036Z,0.50
2018-12-10T14:04:46.084Z,0.60
2018-12-10T14:07:17.033Z,0.70
2018-12-10T14:09:50.661Z,1.00
2018-12-10T14:14:53.721Z,0.80
2018-12-10T14:17:21.237Z,1.20
2018-12-10T14:19:52.146Z,0.83
2018-12-10T14:22:19.793Z,0.90
2018-12-10T14:24:53.587Z,1.00
2018-12-10T14:27:27.597Z,0.90
2018-12-10T14:29:58.916Z,0.80
2018-12-10T14:32:30.352Z,1.07
2018-12-10T14:35:03.689Z,0.60
2018-12-10T14:37:34.857Z,0.60
2018-12-10T14:40:05.877Z,0.70
2018-12-10T14:42:44.165Z,0.70
2018-12-10T14:45:15.451Z,0.80
2018-12-10T14:47:49.567Z,0.73
2018-12-10T14:50:23.450Z,0.70
2018-12-10T14:52:57.246Z,0.60
2018-12-10T14:55:28.360Z,0.70
2018-12-10T14:57:59.005Z,1.13
2018-12-10T15:00:30.197Z,1.60
2018-12-10T15:03:04.363Z,2.07
2018-12-10T15:05:35.928Z,1.23
2018-12-10T15:08:06.471Z,1.50
2018-12-10T15:10:33.968Z,0.90
2018-12-10T15:13:01.487Z,1.00
2018-12-10T15:15:35.276Z,1.10
2018-12-10T15:18:06.436Z,1.77
2018-12-10T15:20:36.962Z,1.20
2018-12-10T15:25:30.360Z,1.63
2018-12-10T15:28:04.151Z,1.60
2018-12-10T15:30:37.823Z,1.17
2018-12-10T15:33:08.258Z,0.90
2018-12-10T15:35:39.449Z,0.97
2018-12-10T15:38:10.468Z,2.47
2018-12-10T15:40:41.656Z,1.87
2018-12-10T15:43:12.754Z,1.03
2018-12-10T15:45:44.101Z,1.20
2018-12-10T15:48:17.375Z,1.30
2018-12-10T15:50:48.436Z,1.40
2018-12-10T15:53:22.052Z,1.63
2018-12-10T15:55:52.888Z,1.80
2018-12-10T15:58:23.355Z,2.63
2018-12-10T16:00:50.851Z,1.77
2018-12-10T16:03:21.490Z,1.00
2018-12-10T16:05:53.907Z,0.70
2018-12-10T16:08:24.677Z,0.70
2018-12-10T16:10:52.156Z,1.00
2018-12-10T16:13:25.345Z,1.00
2018-12-10T16:15:52.899Z,0.60
2018-12-10T16:18:23.670Z,0.57
2018-12-10T16:20:54.088Z,0.90
2018-12-10T16:23:24.552Z,0.80
2018-12-10T16:25:57.739Z,1.00
2018-12-10T16:28:33.163Z,0.80
2018-12-10T16:31:06.683Z,0.90
2018-12-10T16:33:34.147Z,0.70
2018-12-10T16:36:08.445Z,0.93
2018-12-10T16:38:39.084Z,0.70
2018-12-10T16:41:10.082Z,0.80
2018-12-10T16:50:53.752Z,0.80
2018-12-10T16:53:24.969Z,0.60
2018-12-10T16:55:55.625Z,0.80
2018-12-10T16:58:29.250Z,1.00
2018-12-10T17:01:00.067Z,0.90
2018-12-10T17:03:30.880Z,0.80
2018-12-10T17:06:01.788Z,0.77
2018-12-10T17:08:32.491Z,0.90
2018-12-10T17:11:03.100Z,0.80
2018-12-10T17:13:30.624Z,0.73
2018-12-10T17:15:58.128Z,1.20
2018-12-10T17:18:25.663Z,0.90
2018-12-10T17:20:56.296Z,0.60
2018-12-10T17:23:26.742Z,0.90
2018-12-10T17:25:55.578Z,0.87
2018-12-10T17:28:26.615Z,0.70
2018-12-10T17:31:00.320Z,0.90
2018-12-10T17:33:31.327Z,1.10
2018-12-10T17:36:04.629Z,1.07
2018-12-10T17:38:39.468Z,0.83
2018-12-10T17:41:10.009Z,0.60
2018-12-10T17:43:41.136Z,0.80
2018-12-10T17:46:12.290Z,0.80
2018-12-10T17:48:43.516Z,0.90
2018-12-10T17:51:14.608Z,1.13
2018-12-10T17:53:48.145Z,1.20
2018-12-10T17:56:21.985Z,0.80
2018-12-10T17:58:55.663Z,1.00
2018-12-10T18:01:29.668Z,0.80
2018-12-10T18:04:03.340Z,0.70
2018-12-10T18:06:34.701Z,0.60
2018-12-10T18:09:06.667Z,0.80
2018-12-10T18:11:37.999Z,0.60
2018-12-10T18:14:08.748Z,0.70
2018-12-10T18:16:42.356Z,0.70
2018-12-10T18:19:16.389Z,0.70
2018-12-10T18:21:47.218Z,0.70
2018-12-10T18:24:17.851Z,0.80
2018-12-10T18:26:48.437Z,0.70
2018-12-10T18:29:18.844Z,0.60
2018-12-10T18:36:45.464Z,0.67
2018-12-10T18:39:18.644Z,0.70
2018-12-10T18:41:49.466Z,0.70
2018-12-10T18:44:19.893Z,0.70
2018-12-10T18:46:50.700Z,0.70
2018-12-10T18:49:21.614Z,0.70
2018-12-10T18:51:55.457Z,0.70
2018-12-10T18:54:26.729Z,0.77
2018-12-10T18:57:00.686Z,0.80
2018-12-10T18:59:34.784Z,0.80
2018-12-10T19:02:08.590Z,0.70
2018-12-10T19:04:39.628Z,0.80
2018-12-10T19:07:10.292Z,0.60
2018-12-10T19:09:43.860Z,0.80
2018-12-10T19:12:15.275Z,0.70
2018-12-10T19:14:46.067Z,0.70
2018-12-10T19:17:17.187Z,0.70
2018-12-10T19:19:48.560Z,0.70
2018-12-10T19:22:16.070Z,0.60
2018-12-10T19:24:49.383Z,0.60
2018-12-10T19:27:22.844Z,0.70
2018-12-10T19:29:56.453Z,0.70
2018-12-10T19:32:27.083Z,0.80
2018-12-10T19:35:00.900Z,0.73
2018-12-10T19:37:31.903Z,0.77
2018-12-10T19:40:03.107Z,0.80
2018-12-10T19:42:37.280Z,0.90
2018-12-10T19:45:06.188Z,1.00
2018-12-10T19:47:37.463Z,0.80
2018-12-10T19:50:08.211Z,0.80
2018-12-10T19:52:42.306Z,0.80
2018-12-10T19:55:17.782Z,0.97
2018-12-10T19:57:48.542Z,0.80
2018-12-10T20:00:19.947Z,0.70
2018-12-10T20:02:50.736Z,1.23
2018-12-10T20:05:23.680Z,0.80
2018-12-10T20:07:54.590Z,0.97
2018-12-10T20:10:28.192Z,0.90
2018-12-10T20:12:59.447Z,0.70
2018-12-10T20:15:29.977Z,1.00
2018-12-10T20:18:00.525Z,1.00
2018-12-10T20:20:31.021Z,0.80
2018-12-10T20:23:01.460Z,0.97
2018-12-10T20:25:32.212Z,0.80
2018-12-10T20:28:06.346Z,0.70
2018-12-10T20:30:39.786Z,1.03
2018-12-10T20:33:10.822Z,0.97
2018-12-10T20:35:44.516Z,0.90
2018-12-10T20:38:18.215Z,0.80
2018-12-10T20:40:49.382Z,0.90
2018-12-10T20:43:20.185Z,0.90
2018-12-10T20:45:53.448Z,0.97
2018-12-10T20:48:24.168Z,0.90
2018-12-10T20:50:55.213Z,0.90
2018-12-10T20:53:26.139Z,0.97
2018-12-10T20:55:53.623Z,0.83
2018-12-10T20:58:27.249Z,0.80
2018-12-10T21:00:58.577Z,0.80
2018-12-10T21:03:32.112Z,0.80
2018-12-10T21:06:08.748Z,1.10
2018-12-10T21:08:42.811Z,0.80
2018-12-10T21:11:16.716Z,0.80
2018-12-10T21:13:44.277Z,0.80
2018-12-10T21:16:15.343Z,0.90
2018-12-10T21:18:46.173Z,0.70
2018-12-10T21:21:16.895Z,0.70
2018-12-10T21:23:47.952Z,0.80
2018-12-10T21:26:18.852Z,1.00
2018-12-10T21:28:49.556Z,0.70
2018-12-10T21:31:23.089Z,0.80
2018-12-10T21:33:56.897Z,0.70
2018-12-10T21:36:30.798Z,0.90
2018-12-10T21:39:05.877Z,0.80
2018-12-10T21:41:39.951Z,0.90
2018-12-10T21:44:13.925Z,0.80
2018-12-10T21:46:41.438Z,0.90
2018-12-10T21:49:09.037Z,0.80
2018-12-10T21:51:36.556Z,0.90
2018-12-10T21:54:07.404Z,0.93
2018-12-10T21:56:40.940Z,0.80
2018-12-10T21:59:12.052Z,1.10
2018-12-10T22:01:42.554Z,0.90
2018-12-10T22:04:14.982Z,0.80
2018-12-10T22:06:42.516Z,0.80
2018-12-10T22:09:16.153Z,0.83
2018-12-10T22:11:47.448Z,0.80
2018-12-10T22:14:18.427Z,1.43
2018-12-10T22:16:49.475Z,1.13
2018-12-10T22:19:19.962Z,1.00
2018-12-10T22:21:51.092Z,0.97
2018-12-10T22:24:22.231Z,0.90
2018-12-10T22:26:55.531Z,0.90
2018-12-10T22:29:26.209Z,1.00
2018-12-10T22:31:53.684Z,0.90
2018-12-10T22:34:26.976Z,0.90
2018-12-10T22:36:57.684Z,0.97
2018-12-10T22:39:28.191Z,0.90
2018-12-10T22:41:58.617Z,0.90
2018-12-10T22:44:29.148Z,0.87
2018-12-10T22:46:59.587Z,0.90
2018-12-10T22:49:30.445Z,1.00
2018-12-10T22:52:01.396Z,1.00
2018-12-10T22:54:34.700Z,1.00
2018-12-10T22:57:05.830Z,0.80
2018-12-10T22:59:36.494Z,1.00
2018-12-10T23:02:09.691Z,0.80
2018-12-10T23:04:40.355Z,0.80
2018-12-10T23:07:10.792Z,0.80
2018-12-10T23:09:44.018Z,0.80
2018-12-10T23:12:14.772Z,0.83
2018-12-10T23:14:42.247Z,0.90
2018-12-10T23:17:15.441Z,0.70
2018-12-10T23:19:46.092Z,0.90
2018-12-10T23:22:13.621Z,0.70
2018-12-10T23:24:55.513Z,0.70
2018-12-10T23:27:26.031Z,0.73
2018-12-10T23:29:53.527Z,0.93
2018-12-10T23:32:20.991Z,0.90
2018-12-10T23:34:51.827Z,0.70
2018-12-10T23:37:24.228Z,0.80
2018-12-10T23:39:57.710Z,0.80
2018-12-10T23:42:28.995Z,0.73
2018-12-10T23:44:59.841Z,0.97
2018-12-10T23:47:30.745Z,1.10
2018-12-10T23:50:04.800Z,1.20
2018-12-10T23:52:38.602Z,1.00
2018-12-10T23:55:09.471Z,1.10
2018-12-10T23:57:40.108Z,0.70
